Time;durP1;ratioP1;P1;durP2;ratioP2;P2;SDS_P1;SDS_P2;PMS_P1;PMS_P2;Temp;Humidity;BMP_temperature;BMP_pressure;BME280_temperature;BME280_humidity;BME280_pressure;Samples;Min_cycle;Max_cycle;Signal;HPM_P1;HPM_P2
2023/01/16 00:01:28;;;;;;;6.45;1.30;;;5.20;99.90;;;-144.05;73.75;125687.94;5054667;28;20079;-78
2023/01/16 00:03:54;;;;;;;4.03;0.90;;;5.20;99.90;;;-144.05;74.04;125687.94;5039883;28;20052;-80
2023/01/16 00:06:20;;;;;;;3.72;0.85;;;5.20;99.90;;;-144.05;74.44;125687.94;5040172;28;20356;-81
2023/01/16 00:08:48;;;;;;;6.32;1.25;;;5.20;99.90;;;-144.05;74.11;125687.94;5036621;28;20025;-80
2023/01/16 00:11:14;;;;;;;4.53;1.00;;;5.20;99.90;;;-144.05;74.66;125687.94;5037717;28;20116;-80
2023/01/16 00:13:40;;;;;;;5.55;1.40;;;5.20;99.90;;;-144.05;74.77;125687.94;5055701;28;20448;-81
2023/01/16 00:16:07;;;;;;;4.13;0.90;;;5.10;99.90;;;-144.05;75.02;125687.94;5038031;28;20025;-80
2023/01/16 00:18:34;;;;;;;10.52;1.20;;;5.10;99.90;;;-144.05;75.03;125687.94;5037992;28;20032;-80
2023/01/16 00:21:01;;;;;;;5.65;1.17;;;5.10;99.90;;;-144.05;75.17;125687.94;5059463;28;20507;-80
2023/01/16 00:23:27;;;;;;;8.98;1.35;;;5.10;99.90;;;-144.05;74.83;125687.94;5042800;28;20056;-80
2023/01/16 00:25:53;;;;;;;1.88;0.77;;;5.10;99.90;;;-144.05;74.62;125687.94;5042318;28;20334;-80
2023/01/16 00:28:19;;;;;;;4.47;0.93;;;5.10;99.90;;;-144.05;74.15;125687.94;5061113;28;20348;-80
2023/01/16 00:30:45;;;;;;;5.13;0.90;;;5.10;99.90;;;-144.05;74.73;125687.94;5043449;28;20447;-82
2023/01/16 00:33:11;;;;;;;2.15;1.02;;;5.10;99.90;;;-144.05;74.26;125687.94;5072026;28;20017;-81
2023/01/16 00:35:37;;;;;;;8.55;1.63;;;5.10;99.90;;;-144.05;73.74;125687.94;5055788;28;20029;-81
2023/01/16 00:38:03;;;;;;;6.85;1.60;;;5.10;99.90;;;-144.05;74.36;125687.94;5072560;28;20056;-82
2023/01/16 00:40:29;;;;;;;2.17;0.80;;;5.10;99.90;;;-144.05;74.07;125687.94;5072792;28;20033;-80
2023/01/16 00:42:55;;;;;;;4.72;0.88;;;5.10;99.90;;;-144.05;73.27;125687.94;5053579;28;20470;-81
2023/01/16 00:45:21;;;;;;;3.53;1.10;;;5.10;99.90;;;-144.05;73.15;125687.94;5052174;28;20025;-80
2023/01/16 00:47:47;;;;;;;3.70;0.98;;;5.10;99.90;;;-144.05;73.22;125687.94;5069884;28;20052;-81
2023/01/16 00:50:14;;;;;;;4.60;1.17;;;5.10;99.90;;;-144.05;72.95;125687.94;5068940;28;20029;-81
2023/01/16 00:52:40;;;;;;;5.82;1.30;;;5.10;99.90;;;-144.05;72.57;125687.94;5069181;28;20396;-82
2023/01/16 00:55:06;;;;;;;3.20;1.00;;;5.10;99.90;;;-144.05;72.70;125687.94;5053724;28;20044;-83
2023/01/16 00:57:32;;;;;;;4.00;0.90;;;5.10;99.90;;;-144.05;72.70;125687.94;5074779;28;20021;-83
2023/01/16 00:59:57;;;;;;;1.75;0.80;;;5.20;99.90;;;-144.05;72.54;125687.94;5057310;28;20435;-80
2023/01/16 01:02:23;;;;;;;4.20;2.08;;;5.30;99.90;;;-144.05;72.08;125687.94;5075695;28;20507;-81
2023/01/16 01:04:49;;;;;;;6.00;1.20;;;5.20;99.90;;;-144.05;71.84;125687.94;5059507;28;20489;-79
2023/01/16 01:07:15;;;;;;;2.75;0.73;;;5.20;99.90;;;-144.05;71.74;125687.94;5077134;28;20029;-80
2023/01/16 01:09:41;;;;;;;4.28;0.98;;;5.20;99.90;;;-144.05;72.13;125687.94;5059242;28;20020;-82
2023/01/16 01:12:07;;;;;;;1.38;0.73;;;5.20;99.90;;;-144.05;72.16;125687.94;5076368;28;20028;-82
2023/01/16 01:14:33;;;;;;;6.25;1.65;;;5.20;99.90;;;-144.05;71.96;125687.94;5058249;28;20036;-81
2023/01/16 01:16:59;;;;;;;5.13;1.20;;;5.20;99.90;;;-144.05;71.92;125687.94;5076299;28;20040;-81
2023/01/16 01:19:24;;;;;;;5.78;1.38;;;5.10;99.90;;;-144.05;72.24;125687.94;5075475;28;20097;-82
2023/01/16 01:21:50;;;;;;;3.00;0.82;;;5.00;99.90;;;-144.05;72.16;125687.94;5074972;28;20616;-83
2023/01/16 01:24:16;;;;;;;6.68;1.55;;;5.00;99.90;;;-144.05;72.27;125687.94;5075139;28;20033;-81
2023/01/16 01:26:42;;;;;;;2.17;0.77;;;4.90;99.90;;;-144.05;72.39;125687.94;5075805;28;20081;-82
2023/01/16 01:29:08;;;;;;;3.50;0.90;;;4.80;99.90;;;-144.05;72.31;125687.94;5075008;28;20036;-82
2023/01/16 01:31:36;;;;;;;3.42;0.77;;;4.80;99.90;;;-144.05;72.70;125687.94;5056294;28;20029;-81
2023/01/16 01:34:02;;;;;;;4.28;0.80;;;4.80;99.90;;;-144.05;72.68;125687.94;5057577;28;20040;-80
2023/01/16 01:36:27;;;;;;;5.00;0.80;;;4.70;99.90;;;-144.05;72.71;125687.94;5074627;28;20021;-79
2023/01/16 01:38:53;;;;;;;5.30;0.70;;;4.70;99.90;;;-144.05;72.37;125687.94;5074491;28;20021;-79
2023/01/16 01:41:19;;;;;;;5.22;1.15;;;4.70;99.90;;;-144.05;72.41;125687.94;5055884;28;20031;-79
2023/01/16 01:43:55;;;;;;;7.20;1.23;;;4.70;99.90;;;-144.05;72.53;125687.94;5073747;28;20055;-80
2023/01/16 01:46:45;;;;;;;7.07;0.88;;;4.70;99.90;;;-144.05;72.32;125687.94;5073883;28;20080;-83
2023/01/16 01:49:29;;;;;;;3.17;0.90;;;4.70;99.90;;;-144.05;72.25;125687.94;5071034;28;20029;-81
2023/01/16 01:52:01;;;;;;;3.97;1.70;;;4.70;99.90;;;-144.05;72.02;125687.94;5052904;28;20033;-80
2023/01/16 01:54:37;;;;;;;4.07;1.10;;;4.70;99.90;;;-144.05;71.74;125687.94;5071662;28;20029;-82
2023/01/16 01:57:17;;;;;;;3.13;0.90;;;4.60;99.90;;;-144.05;71.84;125687.94;5054871;28;20040;-82
2023/01/16 02:00:00;;;;;;;2.63;0.82;;;4.60;99.90;;;-144.05;72.11;125687.94;5054131;28;20048;-79
2023/01/16 02:02:36;;;;;;;6.18;0.82;;;4.60;99.90;;;-144.05;71.63;125687.94;5054453;28;20048;-82
2023/01/16 02:05:10;;;;;;;3.65;1.05;;;4.60;99.90;;;-144.05;71.50;125687.94;5072047;28;20059;-82
2023/01/16 02:07:37;;;;;;;3.80;0.80;;;4.60;99.90;;;-144.05;71.26;125687.94;5071890;28;20088;-83
2023/01/16 02:10:24;;;;;;;3.28;1.45;;;4.60;99.90;;;-144.05;71.55;125687.94;5071547;28;20029;-82
2023/01/16 02:12:51;;;;;;;2.50;0.80;;;4.50;99.90;;;-144.05;71.30;125687.94;5053934;28;20109;-81
2023/01/16 02:15:19;;;;;;;3.72;0.95;;;4.50;99.90;;;-144.05;72.29;125687.94;5052683;28;20056;-81
2023/01/16 02:20:50;;;;;;;3.13;0.80;;;4.40;99.90;;;-144.05;72.11;125687.94;5071021;28;20271;-83
2023/01/16 02:23:48;;;;;;;2.92;1.10;;;4.50;99.90;;;-144.05;71.97;125687.94;5052579;28;20121;-81
2023/01/16 02:27:08;;;;;;;2.40;0.80;;;4.50;99.90;;;-144.05;72.17;125687.94;5070002;28;20029;-82
2023/01/16 02:30:22;;;;;;;4.55;1.02;;;4.50;99.90;;;-144.05;71.99;125687.94;5069963;28;20100;-81
2023/01/16 02:33:00;;;;;;;2.95;0.90;;;4.40;99.90;;;-144.05;73.04;125687.94;5051560;28;20056;-80
2023/01/16 02:36:09;;;;;;;2.45;0.80;;;4.40;99.90;;;-144.05;72.55;125687.94;5046296;28;20090;-81
2023/01/16 02:39:08;;;;;;;4.32;0.93;;;4.40;99.90;;;-144.05;72.74;125687.94;5054244;28;20036;-81
2023/01/16 02:41:58;;;;;;;1.27;0.70;;;4.40;99.90;;;-144.05;72.29;125687.94;5075839;28;20044;-82
2023/01/16 02:45:08;;;;;;;3.80;0.90;;;4.30;99.90;;;-144.05;72.26;125687.94;5077093;28;20028;-79
2023/01/16 02:48:18;;;;;;;1.55;0.60;;;4.30;99.90;;;-144.05;72.47;125687.94;5075201;28;20029;-79
2023/01/16 02:51:15;;;;;;;3.83;0.60;;;4.20;99.90;;;-144.05;73.18;125687.94;5055037;28;20389;-82
2023/01/16 02:53:43;;;;;;;5.10;1.20;;;4.30;99.90;;;-144.05;73.07;125687.94;5054097;28;20089;-80
2023/01/16 02:56:19;;;;;;;2.97;0.80;;;4.20;99.90;;;-144.05;73.37;125687.94;5072061;28;20056;-81
2023/01/16 02:58:49;;;;;;;3.03;0.50;;;4.20;99.90;;;-144.05;73.57;125687.94;5070615;28;20028;-82
2023/01/16 03:01:18;;;;;;;3.95;0.75;;;4.20;99.90;;;-144.05;74.09;125687.94;5070170;28;20032;-82
2023/01/16 03:03:53;;;;;;;2.25;1.48;;;4.40;99.90;;;-144.05;73.53;125687.94;5070181;28;20021;-82
2023/01/16 03:06:48;;;;;;;4.03;0.70;;;4.40;99.90;;;-144.05;73.23;125687.94;5069257;28;20029;-82
2023/01/16 03:10:12;;;;;;;3.20;0.93;;;4.40;99.90;;;-144.05;72.78;125687.94;5069247;28;20047;-81
2023/01/16 03:13:24;;;;;;;1.65;0.68;;;4.50;99.90;;;-144.05;73.03;125687.94;5067560;28;20032;-81
2023/01/16 03:16:09;;;;;;;1.13;0.60;;;4.50;99.90;;;-144.05;72.93;125687.94;5048648;28;20031;-80
2023/01/16 03:19:00;;;;;;;3.45;0.65;;;4.60;99.90;;;-144.05;72.68;125687.94;5063647;28;20040;-80
2023/01/16 03:22:12;;;;;;;2.58;0.90;;;4.60;99.90;;;-144.05;72.51;125687.94;5064418;28;20132;-81
2023/01/16 03:25:40;;;;;;;3.80;0.50;;;4.60;99.90;;;-144.05;73.02;125687.94;5045833;28;20111;-81
2023/01/16 03:28:26;;;;;;;;;;;4.60;99.90;;;-144.05;73.23;125687.94;5024084;28;20565;-80
2023/01/16 03:31:11;;;;;;;1.65;0.63;;;4.60;99.90;;;-144.05;72.52;125687.94;5064938;28;19925;-82
2023/01/16 03:34:02;;;;;;;2.97;0.77;;;4.70;99.90;;;-144.05;72.51;125687.94;5065544;28;20049;-80
2023/01/16 03:36:55;;;;;;;3.58;0.47;;;4.70;99.90;;;-144.05;72.69;125687.94;5064951;28;20025;-80
2023/01/16 03:39:34;;;;;;;4.13;1.38;;;4.80;99.90;;;-144.05;72.95;125687.94;5064669;28;20029;-82
2023/01/16 03:42:12;;;;;;;1.08;0.52;;;4.80;99.90;;;-144.05;72.46;125687.94;5046334;28;20033;-80
2023/01/16 03:44:55;;;;;;;0.70;0.60;;;4.80;99.90;;;-144.05;72.61;125687.94;5046745;28;20025;-80
2023/01/16 03:47:34;;;;;;;2.90;0.60;;;4.80;99.90;;;-144.05;72.48;125687.94;5064725;28;20441;-82
2023/01/16 03:50:08;;;;;;;2.75;0.80;;;4.80;99.90;;;-144.05;72.64;125687.94;5063568;28;20040;-81
2023/01/16 03:52:57;;;;;;;1.75;0.55;;;4.70;99.90;;;-144.05;72.52;125687.94;5045383;28;20028;-80
2023/01/16 03:55:43;;;;;;;0.47;0.30;;;4.60;99.90;;;-144.05;72.42;125687.94;5062099;28;20436;-81
2023/01/16 03:58:27;;;;;;;0.40;0.30;;;4.50;99.90;;;-144.05;72.90;125687.94;5064343;28;20038;-81
2023/01/16 04:01:20;;;;;;;1.67;0.47;;;4.60;99.90;;;-144.05;73.42;125687.94;5063812;28;20037;-81
2023/01/16 04:04:02;;;;;;;0.68;0.38;;;4.50;99.90;;;-144.05;73.33;125687.94;5064443;28;20029;-81
2023/01/16 04:06:40;;;;;;;2.20;0.32;;;4.40;99.90;;;-144.05;73.85;125687.94;5045045;28;20465;-81
2023/01/16 04:09:40;;;;;;;1.85;0.45;;;4.40;99.90;;;-144.05;73.39;125687.94;5063241;28;20488;-80
2023/01/16 04:12:08;;;;;;;1.80;0.50;;;4.50;99.90;;;-144.05;72.74;125687.94;5031157;28;20045;-80
2023/01/16 04:14:39;;;;;;;2.15;0.40;;;4.50;99.90;;;-144.05;72.24;125687.94;5044765;28;20040;-82
2023/01/16 04:17:07;;;;;;;2.20;0.45;;;4.40;99.90;;;-144.05;73.67;125687.94;5063048;28;20468;-80
2023/01/16 04:19:34;;;;;;;1.85;0.55;;;4.30;99.90;;;-144.05;73.53;125687.94;5044816;28;20048;-82
2023/01/16 04:22:07;;;;;;;4.63;1.13;;;4.40;99.90;;;-144.05;73.67;125687.94;5044760;28;20056;-82
2023/01/16 04:24:35;;;;;;;1.40;0.50;;;4.40;99.90;;;-144.05;73.16;125687.94;5062915;28;20144;-82
2023/01/16 04:27:01;;;;;;;3.65;0.63;;;4.30;99.90;;;-144.05;73.04;125687.94;5061745;28;20029;-80
2023/01/16 04:29:27;;;;;;;3.45;0.60;;;4.40;99.90;;;-144.05;73.38;125687.94;5063016;28;20025;-82
2023/01/16 04:31:53;;;;;;;1.10;0.32;;;4.40;99.90;;;-144.05;72.70;125687.94;5063497;28;20028;-81
2023/01/16 04:34:19;;;;;;;3.03;0.55;;;4.40;99.90;;;-144.05;73.42;125687.94;5048800;28;20025;-81
2023/01/16 04:36:44;;;;;;;3.40;0.75;;;4.50;99.90;;;-144.05;72.95;125687.94;5045503;28;20028;-79
2023/01/16 04:39:10;;;;;;;2.35;0.50;;;4.50;99.90;;;-144.05;72.93;125687.94;5063721;28;20373;-80
2023/01/16 04:41:36;;;;;;;2.20;0.65;;;4.50;99.90;;;-144.05;72.81;125687.94;5063971;28;20029;-81
2023/01/16 04:44:09;;;;;;;1.63;0.60;;;4.50;99.90;;;-144.05;72.88;125687.94;5063257;28;20044;-81
2023/01/16 04:46:37;;;;;;;4.55;0.65;;;4.60;99.90;;;-144.05;73.03;125687.94;5061976;28;20060;-81
2023/01/16 04:49:05;;;;;;;2.65;0.88;;;4.60;99.90;;;-144.05;73.06;125687.94;5043143;28;20048;-79
2023/01/16 04:51:31;;;;;;;1.45;0.47;;;4.60;99.90;;;-144.05;72.53;125687.94;5044771;28;20053;-81
2023/01/16 04:53:57;;;;;;;5.32;0.60;;;4.60;99.90;;;-144.05;72.10;125687.94;5061954;28;20056;-80
2023/01/16 04:56:23;;;;;;;2.00;0.98;;;4.60;99.90;;;-144.05;72.85;125687.94;5044810;28;20021;-82
2023/01/16 04:58:50;;;;;;;2.05;0.73;;;4.60;99.90;;;-144.05;73.30;125687.94;5062292;28;20076;-81
2023/01/16 05:01:17;;;;;;;2.55;0.77;;;4.60;99.90;;;-144.05;72.91;125687.94;5044471;28;20195;-81
2023/01/16 05:03:43;;;;;;;1.92;0.52;;;4.60;99.90;;;-144.05;73.18;125687.94;5060228;28;20088;-81
2023/01/16 05:06:09;;;;;;;4.40;0.80;;;4.50;99.90;;;-144.05;73.13;125687.94;5043673;28;20032;-82
2023/01/16 05:08:35;;;;;;;2.60;0.68;;;4.40;99.90;;;-144.05;73.27;125687.94;5048033;28;20045;-82
2023/01/16 05:11:01;;;;;;;2.45;0.85;;;4.40;99.90;;;-144.05;73.31;125687.94;5046617;28;20033;-83
2023/01/16 05:13:30;;;;;;;3.35;0.70;;;4.40;99.90;;;-144.05;73.17;125687.94;5047778;28;20044;-81
2023/01/16 05:15:56;;;;;;;3.05;0.88;;;4.40;99.90;;;-144.05;73.24;125687.94;5065630;28;20021;-81
2023/01/16 05:18:23;;;;;;;3.72;1.00;;;4.40;99.90;;;-144.05;73.29;125687.94;5066572;28;20099;-81
2023/01/16 05:20:49;;;;;;;2.83;0.70;;;4.40;99.90;;;-144.05;72.83;125687.94;5047980;28;20036;-79
2023/01/16 05:23:15;;;;;;;6.22;0.70;;;4.40;99.90;;;-144.05;72.78;125687.94;5067361;28;20507;-80
2023/01/16 05:25:42;;;;;;;5.70;0.65;;;4.40;99.90;;;-144.05;73.12;125687.94;5068140;28;20035;-80
2023/01/16 05:28:08;;;;;;;3.10;0.70;;;4.30;99.90;;;-144.05;73.32;125687.94;5066611;28;20048;-81
2023/01/16 05:30:34;;;;;;;4.85;0.70;;;4.40;99.90;;;-144.05;73.09;125687.94;5049592;28;20036;-80
2023/01/16 05:33:01;;;;;;;4.38;0.82;;;4.30;99.90;;;-144.05;73.44;125687.94;5066335;28;20029;-81
2023/01/16 05:35:28;;;;;;;4.05;0.93;;;4.30;99.90;;;-144.05;72.68;125687.94;5066711;28;20021;-81
2023/01/16 05:37:53;;;;;;;1.45;0.65;;;4.30;99.90;;;-144.05;73.53;125687.94;5064947;28;20491;-81
2023/01/16 05:40:19;;;;;;;2.63;1.27;;;4.30;99.90;;;-144.05;74.02;125687.94;5065579;28;20029;-82
2023/01/16 05:42:47;;;;;;;4.25;0.80;;;4.30;99.90;;;-144.05;73.26;125687.94;5066555;28;20102;-82
2023/01/16 05:45:14;;;;;;;2.78;1.20;;;4.40;99.90;;;-144.05;72.95;125687.94;5047621;28;20036;-80
2023/01/16 05:47:40;;;;;;;4.65;0.65;;;4.40;99.90;;;-144.05;73.17;125687.94;5066983;28;20033;-80
2023/01/16 05:50:07;;;;;;;5.13;0.90;;;4.40;99.90;;;-144.05;73.33;125687.94;5064825;28;20029;-80
2023/01/16 05:52:33;;;;;;;3.78;0.65;;;4.40;99.90;;;-144.05;72.97;125687.94;5047195;28;20373;-80
2023/01/16 05:54:59;;;;;;;4.07;0.73;;;4.40;99.90;;;-144.05;72.21;125687.94;5047367;28;20128;-83
2023/01/16 05:57:25;;;;;;;2.58;0.88;;;4.40;99.90;;;-144.05;71.75;125687.94;5065348;28;20025;-80
2023/01/16 05:59:52;;;;;;;3.33;0.90;;;4.50;99.90;;;-144.05;71.32;125687.94;5049737;28;20036;-81
2023/01/16 06:02:20;;;;;;;5.45;0.60;;;4.50;99.90;;;-144.05;72.09;125687.94;5065344;28;20364;-82
2023/01/16 06:04:47;;;;;;;6.70;0.98;;;4.50;99.90;;;-144.05;71.48;125687.94;5048812;28;20029;-81
2023/01/16 06:07:14;;;;;;;2.72;0.80;;;4.40;99.90;;;-144.05;71.97;125687.94;5065695;28;20021;-81
2023/01/16 06:09:40;;;;;;;3.50;1.10;;;4.50;99.90;;;-144.05;71.91;125687.94;5049563;28;20048;-83
2023/01/16 06:12:09;;;;;;;3.08;0.52;;;4.50;99.90;;;-144.05;71.64;125687.94;5047564;28;20028;-81
2023/01/16 06:14:36;;;;;;;1.00;0.60;;;4.60;99.90;;;-144.05;70.93;125687.94;5049531;28;20025;-83
2023/01/16 06:17:02;;;;;;;4.22;0.70;;;4.60;99.90;;;-144.05;71.33;125687.94;5067649;28;20033;-82
2023/01/16 06:19:28;;;;;;;2.75;0.50;;;4.70;99.90;;;-144.05;69.88;125687.94;5050036;28;20025;-82
2023/01/16 06:21:54;;;;;;;2.58;0.73;;;4.70;99.90;;;-144.05;69.99;125687.94;5050781;28;20029;-83
2023/01/16 06:24:20;;;;;;;1.20;0.45;;;4.70;99.90;;;-144.05;70.33;125687.94;5049041;28;20056;-81
2023/01/16 06:26:46;;;;;;;2.53;0.60;;;4.70;99.90;;;-144.05;70.47;125687.94;5047327;28;20373;-81
2023/01/16 06:29:12;;;;;;;4.40;0.70;;;4.80;99.90;;;-144.05;70.02;125687.94;5048484;28;20036;-82
2023/01/16 06:31:38;;;;;;;1.95;0.60;;;4.80;99.90;;;-144.05;69.59;125687.94;5047282;28;20033;-79
2023/01/16 06:34:03;;;;;;;3.08;0.57;;;4.80;99.90;;;-144.05;69.61;125687.94;5048495;28;20116;-81
2023/01/16 06:36:29;;;;;;;1.42;0.80;;;4.80;99.90;;;-144.05;68.89;125687.94;5065034;28;20052;-81
2023/01/16 06:38:55;;;;;;;4.18;0.68;;;4.90;99.90;;;-144.05;69.07;125687.94;5047318;28;20028;-81
2023/01/16 06:41:21;;;;;;;2.47;1.15;;;4.90;99.90;;;-144.05;68.78;125687.94;5063210;28;20025;-80
2023/01/16 06:43:47;;;;;;;1.77;0.55;;;4.90;99.90;;;-144.05;68.83;125687.94;5061445;28;20033;-79
2023/01/16 06:46:13;;;;;;;1.33;0.55;;;5.00;99.90;;;-144.05;68.99;125687.94;5061582;28;20503;-80
2023/01/16 06:48:41;;;;;;;1.65;0.80;;;5.00;99.90;;;-144.05;69.11;125687.94;5064064;28;20033;-79
2023/01/16 06:51:09;;;;;;;1.17;0.70;;;5.00;99.90;;;-144.05;68.81;125687.94;5059693;28;20059;-80
2023/01/16 06:53:36;;;;;;;2.28;0.57;;;5.00;99.90;;;-144.05;68.47;125687.94;5043238;28;20116;-78
2023/01/16 06:56:03;;;;;;;2.50;0.63;;;5.10;99.90;;;-144.05;69.28;125687.94;5060144;28;20033;-83
2023/01/16 06:58:29;;;;;;;2.28;0.73;;;5.20;99.90;;;-144.05;68.71;125687.94;5066157;28;20033;-80
2023/01/16 07:00:55;;;;;;;3.53;0.88;;;5.20;99.90;;;-144.05;68.45;125687.94;5065725;28;20053;-79
2023/01/16 07:03:22;;;;;;;1.10;0.68;;;5.20;99.90;;;-144.05;67.76;125687.94;5046807;28;20029;-80
2023/01/16 07:05:48;;;;;;;4.00;0.77;;;5.20;99.90;;;-144.05;67.59;125687.94;5047142;28;20025;-81
2023/01/16 07:08:14;;;;;;;1.00;0.82;;;5.30;99.90;;;-144.05;67.80;125687.94;5065460;28;20500;-80
2023/01/16 07:10:40;;;;;;;1.23;0.73;;;5.30;99.90;;;-144.05;68.05;125687.94;5048317;28;20075;-80
2023/01/16 07:13:06;;;;;;;2.03;0.65;;;5.30;99.90;;;-144.05;68.29;125687.94;5054439;28;20029;-79
2023/01/16 07:24:05;;;;;;;3.58;0.95;;;5.30;99.90;;;-144.05;67.16;125687.94;5070307;28;20098;-78
2023/01/16 07:26:36;;;;;;;1.10;0.70;;;5.40;99.90;;;-144.05;66.70;125687.94;5075070;28;20074;-78
2023/01/16 07:29:03;;;;;;;5.80;0.82;;;5.40;99.90;;;-144.05;66.83;125687.94;5058151;28;20108;-78
2023/01/16 07:31:34;;;;;;;3.47;0.90;;;5.40;99.90;;;-144.05;66.94;125687.94;5072912;28;20033;-80
2023/01/16 07:34:00;;;;;;;1.35;0.85;;;5.30;99.90;;;-144.05;66.81;125687.94;5053256;28;20047;-81
2023/01/16 07:36:25;;;;;;;3.15;1.10;;;5.40;99.90;;;-144.05;67.14;125687.94;5052864;28;20060;-77
2023/01/16 07:38:51;;;;;;;2.17;0.82;;;5.40;99.90;;;-144.05;66.95;125687.94;5051480;28;20040;-78
2023/01/16 07:41:17;;;;;;;3.95;0.70;;;5.40;99.90;;;-144.05;66.74;125687.94;5049621;28;20032;-79
2023/01/16 07:43:43;;;;;;;1.52;0.93;;;5.50;99.90;;;-144.05;66.90;125687.94;5067396;28;20385;-80
2023/01/16 07:46:09;;;;;;;2.40;0.82;;;5.50;99.90;;;-144.05;66.79;125687.94;5047410;28;20033;-79
2023/01/16 07:48:35;;;;;;;3.33;1.10;;;5.50;99.90;;;-144.05;66.87;125687.94;5046300;28;20128;-79
2023/01/16 07:51:00;;;;;;;1.35;0.82;;;5.50;99.90;;;-144.05;66.59;125687.94;5066012;28;20037;-81
2023/01/16 07:53:29;;;;;;;4.07;1.00;;;5.50;99.90;;;-144.05;66.71;125687.94;5065142;28;20036;-81
2023/01/16 07:56:01;;;;;;;2.63;1.00;;;5.50;99.90;;;-144.05;66.97;125687.94;5063322;28;20021;-79
2023/01/16 07:58:29;;;;;;;4.63;1.23;;;5.50;99.90;;;-144.05;66.24;125687.94;5045648;28;20047;-80
2023/01/16 08:00:57;;;;;;;3.35;1.10;;;5.60;99.90;;;-144.05;66.52;125687.94;5061742;28;20080;-80
2023/01/16 08:03:25;;;;;;;4.38;0.98;;;5.60;99.90;;;-144.05;66.05;125687.94;5044773;28;20500;-81
2023/01/16 08:05:58;;;;;;;3.42;0.98;;;5.50;99.90;;;-144.05;65.99;125687.94;5063395;28;20070;-81
2023/01/16 08:08:26;;;;;;;2.90;0.73;;;5.60;99.90;;;-144.05;65.98;125687.94;5063304;28;20031;-80
2023/01/16 08:13:46;;;;;;;3.00;0.73;;;5.60;99.90;;;-144.05;65.84;125687.94;5064367;28;20028;-81
2023/01/16 08:16:12;;;;;;;3.05;0.90;;;5.70;99.90;;;-144.05;66.77;125687.94;5063421;28;20051;-81
2023/01/16 08:18:38;;;;;;;3.25;0.85;;;5.60;99.90;;;-144.05;65.57;125687.94;5063895;28;20449;-79
2023/01/16 08:21:04;;;;;;;1.25;0.77;;;5.60;99.90;;;-144.05;66.66;125687.94;5045752;28;20116;-80
2023/01/16 08:23:30;;;;;;;3.00;0.75;;;5.60;99.90;;;-144.05;66.59;125687.94;5046346;28;20396;-80
2023/01/16 08:25:56;;;;;;;2.47;0.98;;;5.60;99.90;;;-144.05;66.59;125687.94;5065004;28;20037;-80
2023/01/16 08:28:21;;;;;;;2.67;0.80;;;5.60;99.90;;;-144.05;66.85;125687.94;5046278;28;20091;-79
2023/01/16 08:30:47;;;;;;;2.58;0.73;;;5.60;99.90;;;-144.05;67.10;125687.94;5063839;28;20071;-80
2023/01/16 08:33:13;;;;;;;2.83;0.68;;;5.60;99.90;;;-144.05;67.40;125687.94;5045625;28;20086;-81
2023/01/16 08:35:39;;;;;;;2.90;0.90;;;5.60;99.90;;;-144.05;68.48;125687.94;5060572;28;20025;-79
2023/01/16 08:38:06;;;;;;;4.57;1.20;;;5.60;99.90;;;-144.05;69.72;125687.94;5041097;28;20044;-80
2023/01/16 08:40:31;;;;;;;3.15;0.80;;;5.50;99.90;;;-144.05;69.57;125687.94;5042785;28;20029;-81
2023/01/16 08:51:23;;;;;;;4.20;1.00;;;5.20;99.90;;;-144.05;72.28;125687.94;5058304;28;20130;-79
2023/01/16 08:53:55;;;;;;;4.30;1.10;;;5.20;99.90;;;-144.05;72.12;125687.94;5058844;28;20021;-78
2023/01/16 08:56:23;;;;;;;3.50;1.02;;;5.20;99.90;;;-144.05;71.85;125687.94;5059399;28;20040;-77
2023/01/16 08:58:48;;;;;;;4.07;1.10;;;5.20;99.90;;;-144.05;71.95;125687.94;5040245;28;20065;-79
2023/01/16 09:01:15;;;;;;;6.60;0.93;;;5.20;99.90;;;-144.05;71.38;125687.94;5041223;28;20218;-78
2023/01/16 09:03:42;;;;;;;3.65;1.00;;;5.20;99.90;;;-144.05;70.31;125687.94;5060490;28;20032;-79
2023/01/16 09:06:08;;;;;;;4.43;1.10;;;5.30;99.90;;;-144.05;70.98;125687.94;5062054;28;20382;-78
2023/01/16 09:08:34;;;;;;;3.58;0.93;;;5.30;99.90;;;-144.05;71.00;125687.94;5061885;28;20029;-78
2023/01/16 09:13:50;;;;;;;4.55;0.90;;;5.40;99.90;;;-144.05;70.40;125687.94;5061712;28;20373;-78
2023/01/16 09:16:23;;;;;;;4.43;1.05;;;5.30;99.90;;;-144.05;70.49;125687.94;5060979;28;20028;-78
2023/01/16 09:18:51;;;;;;;4.80;0.80;;;5.40;99.90;;;-144.05;70.36;125687.94;5062666;28;20033;-79
2023/01/16 09:21:19;;;;;;;3.38;1.08;;;5.50;99.90;;;-144.05;69.75;125687.94;5061594;28;20032;-80
2023/01/16 09:23:46;;;;;;;4.35;1.08;;;5.50;99.90;;;-144.05;68.84;125687.94;5060233;28;20037;-78
2023/01/16 09:26:12;;;;;;;5.20;1.23;;;5.50;99.90;;;-144.05;69.45;125687.94;5060661;28;20036;-79
2023/01/16 09:28:38;;;;;;;4.70;1.10;;;5.60;99.90;;;-144.05;68.74;125687.94;5043874;28;20090;-80
2023/01/16 09:31:04;;;;;;;1.55;0.80;;;5.60;99.90;;;-144.05;68.38;125687.94;5060632;28;20029;-79
2023/01/16 09:33:30;;;;;;;6.78;1.63;;;5.60;99.90;;;-144.05;68.69;125687.94;5061715;28;20028;-79
2023/01/16 09:35:56;;;;;;;5.78;1.15;;;5.70;99.90;;;-144.05;69.04;125687.94;5061836;28;20032;-80
2023/01/16 09:38:22;;;;;;;2.55;1.00;;;5.70;99.90;;;-144.05;68.59;125687.94;5061729;28;20025;-83
2023/01/16 09:40:56;;;;;;;3.45;0.80;;;5.70;99.90;;;-144.05;68.67;125687.94;5043754;28;20023;-83
2023/01/16 09:43:42;;;;;;;3.63;0.90;;;5.70;99.90;;;-144.05;68.51;125687.94;5059188;28;20256;-79
2023/01/16 09:46:22;;;;;;;2.40;0.77;;;5.70;99.90;;;-144.05;67.09;125687.94;5059200;28;20098;-81
2023/01/16 09:49:00;;;;;;;1.63;0.55;;;5.70;99.90;;;-144.05;68.01;125687.94;5059993;28;20029;-80
2023/01/16 10:00:28;;;;;;;2.78;0.80;;;5.70;99.90;;;-144.05;67.58;125687.94;5059760;28;19923;-81
2023/01/16 10:02:54;;;;;;;1.05;0.50;;;5.70;99.90;;;-144.05;67.70;125687.94;5040043;28;20033;-78
2023/01/16 10:05:31;;;;;;;3.92;0.80;;;5.60;99.90;;;-144.05;68.05;125687.94;5058099;28;20142;-80
2023/01/16 10:08:28;;;;;;;2.58;0.85;;;5.60;99.90;;;-144.05;68.25;125687.94;5042631;28;20468;-81
2023/01/16 10:11:18;;;;;;;2.33;0.57;;;5.60;99.90;;;-144.05;68.59;125687.94;5058938;28;20036;-82
2023/01/16 10:14:53;;;;;;;1.55;0.50;;;5.50;99.90;;;-144.05;68.85;125687.94;5059738;28;20027;-83
2023/01/16 10:17:47;;;;;;;2.33;0.90;;;5.50;99.90;;;-144.05;69.87;125687.94;5000039;28;20379;-78
2023/01/16 10:20:41;;;;;;;0.95;0.50;;;5.40;99.90;;;-144.05;69.55;125687.94;5058932;28;20104;-77
2023/01/16 10:24:01;;;;;;;2.85;0.77;;;5.40;99.90;;;-144.05;69.60;125687.94;5058523;28;20025;-79
2023/01/16 10:26:43;;;;;;;2.25;0.90;;;5.40;99.90;;;-144.05;69.06;125687.94;5088325;22;20060;-83
2023/01/16 10:29:31;;;;;;;1.35;0.50;;;5.40;99.90;;;-144.05;69.25;125687.94;5058518;28;20020;-83
2023/01/16 10:32:24;;;;;;;1.15;0.70;;;5.40;99.90;;;-144.05;68.84;125687.94;5058834;28;20024;-85
2023/01/16 10:35:14;;;;;;;3.33;0.90;;;5.40;99.90;;;-144.05;67.94;125687.94;5074390;28;20152;-82
2023/01/16 10:37:43;;;;;;;3.03;0.60;;;5.50;99.90;;;-144.05;67.91;125687.94;5059075;28;20036;-81
2023/01/16 10:40:27;;;;;;;1.30;0.60;;;5.50;99.90;;;-144.05;68.12;125687.94;5058284;28;20123;-83
2023/01/16 10:51:46;;;;;;;3.72;1.02;;;5.50;99.90;;;-144.05;68.73;125687.94;5075559;28;20165;-81
2023/01/16 10:54:13;;;;;;;1.48;0.70;;;5.40;99.90;;;-144.05;68.47;125687.94;5056895;28;20369;-83
2023/01/16 10:56:44;;;;;;;0.77;0.40;;;5.50;99.90;;;-144.05;68.30;125687.94;5057267;28;20549;-84
2023/01/16 10:59:15;;;;;;;1.13;0.47;;;5.40;99.90;;;-144.05;68.27;125687.94;5075134;28;20036;-83
2023/01/16 11:01:42;;;;;;;2.00;0.68;;;5.50;99.90;;;-144.05;66.97;125687.94;5057452;28;20028;-83
2023/01/16 11:04:12;;;;;;;1.83;0.60;;;5.60;99.90;;;-144.05;67.20;125687.94;5073560;28;20036;-83
2023/01/16 11:06:41;;;;;;;1.15;0.47;;;5.60;99.90;;;-144.05;65.58;125687.94;5074720;28;20468;-83
2023/01/16 11:09:19;;;;;;;2.05;0.47;;;5.80;99.90;;;-144.05;66.53;125687.94;5056358;28;20033;-82
2023/01/16 11:20:38;;;;;;;1.02;0.60;;;6.20;99.90;;;-144.05;63.48;125687.94;5074682;28;20032;-83